createdAt,value
2023-03-13T00:01:55.035Z,8.47
2023-03-13T00:04:21.670Z,7.80
2023-03-13T00:06:48.367Z,8.93
2023-03-13T00:09:16.216Z,8.00
2023-03-13T00:11:44.573Z,9.90
2023-03-13T00:14:11.536Z,8.60
2023-03-13T00:16:39.497Z,9.50
2023-03-13T00:19:07.723Z,8.77
2023-03-13T00:21:35.158Z,8.50
2023-03-13T00:24:02.123Z,9.10
2023-03-13T00:26:30.359Z,9.10
2023-03-13T00:28:57.154Z,9.37
2023-03-13T00:31:26.165Z,8.53
2023-03-13T00:33:55.363Z,8.77
2023-03-13T00:36:24.574Z,9.03
2023-03-13T00:38:52.364Z,8.77
2023-03-13T00:41:22.670Z,8.37
2023-03-13T00:43:49.856Z,9.47
2023-03-13T00:46:18.701Z,9.47
2023-03-13T00:48:46.376Z,8.13
2023-03-13T00:51:14.479Z,8.33
2023-03-13T00:53:42.362Z,8.93
2023-03-13T00:56:11.862Z,9.23
2023-03-13T00:58:40.764Z,8.40
2023-03-13T01:01:22.752Z,8.60
2023-03-13T01:03:55.614Z,9.23
2023-03-13T01:06:26.279Z,9.00
2023-03-13T01:08:53.682Z,9.10
2023-03-13T01:11:23.335Z,8.87
2023-03-13T01:14:00.755Z,8.63
2023-03-13T01:16:29.583Z,9.63
2023-03-13T01:19:00.206Z,8.83
2023-03-13T01:21:27.711Z,8.47
2023-03-13T01:23:56.239Z,9.60
2023-03-13T01:26:23.707Z,8.57
2023-03-13T01:28:50.594Z,9.67
2023-03-13T01:31:21.142Z,8.60
2023-03-13T01:33:55.195Z,8.73
2023-03-13T01:36:22.724Z,8.33
2023-03-13T01:38:51.814Z,8.57
2023-03-13T01:41:19.946Z,9.43
2023-03-13T01:43:47.366Z,9.53
2023-03-13T01:46:18.318Z,9.53
2023-03-13T01:49:07.462Z,8.53
2023-03-13T01:51:55.127Z,9.57
2023-03-13T01:54:32.664Z,9.23
2023-03-13T01:57:08.707Z,9.10
2023-03-13T01:59:47.454Z,8.73
2023-03-13T02:02:15.766Z,9.23
2023-03-13T02:04:48.709Z,9.47
2023-03-13T02:07:19.522Z,9.93
2023-03-13T02:09:51.285Z,10.43
2023-03-13T02:12:33.748Z,8.43
2023-03-13T02:15:05.928Z,8.93
2023-03-13T02:17:35.190Z,9.30
2023-03-13T02:20:02.858Z,9.13
2023-03-13T02:22:58.001Z,9.50
2023-03-13T02:25:24.610Z,8.63
2023-03-13T02:28:05.055Z,9.97
2023-03-13T02:30:34.658Z,8.83
2023-03-13T02:33:03.454Z,9.77
2023-03-13T02:35:31.035Z,8.70
2023-03-13T02:38:05.870Z,9.33
2023-03-13T02:40:38.735Z,8.33
2023-03-13T02:43:12.392Z,8.27
2023-03-13T02:45:39.918Z,8.67
2023-03-13T02:48:09.272Z,8.73
2023-03-13T02:50:37.991Z,8.63
2023-03-13T02:53:07.704Z,8.33
2023-03-13T02:55:41.710Z,8.27
2023-03-13T02:58:10.608Z,7.77
2023-03-13T03:00:37.998Z,8.73
2023-03-13T03:03:04.654Z,9.00
2023-03-13T03:05:31.305Z,8.90
2023-03-13T03:07:58.397Z,8.63
2023-03-13T03:10:25.655Z,9.57
2023-03-13T03:12:52.449Z,7.90
2023-03-13T03:15:19.107Z,8.10
2023-03-13T03:17:47.749Z,8.07
2023-03-13T03:20:14.664Z,8.33
2023-03-13T03:22:43.215Z,9.13
2023-03-13T03:25:10.192Z,8.17
2023-03-13T03:27:37.317Z,8.70
2023-03-13T03:30:07.521Z,8.63
2023-03-13T03:32:35.912Z,8.60
2023-03-13T03:35:02.692Z,8.77
2023-03-13T03:37:29.374Z,7.93
2023-03-13T03:39:56.845Z,8.07
2023-03-13T03:42:23.621Z,7.90
2023-03-13T03:44:50.362Z,8.03
2023-03-13T03:47:18.073Z,8.60
2023-03-13T03:49:47.155Z,8.30
2023-03-13T03:52:15.005Z,8.27
2023-03-13T03:54:43.302Z,7.77
2023-03-13T03:57:09.995Z,7.90
2023-03-13T03:59:37.824Z,8.47
2023-03-13T04:02:07.836Z,8.13
2023-03-13T04:04:35.082Z,7.73
2023-03-13T04:07:06.438Z,7.90
2023-03-13T04:09:34.066Z,7.67
2023-03-13T04:12:02.527Z,7.13
2023-03-13T04:14:33.693Z,8.07
2023-03-13T04:17:04.419Z,7.27
2023-03-13T04:19:31.178Z,7.10
2023-03-13T04:21:58.412Z,6.73
2023-03-13T04:24:25.092Z,7.50
2023-03-13T04:26:51.860Z,7.00
2023-03-13T04:29:18.820Z,6.97
2023-03-13T04:31:51.396Z,6.40
2023-03-13T04:34:31.679Z,7.30
2023-03-13T04:37:18.062Z,7.33
2023-03-13T04:39:58.812Z,6.60
2023-03-13T04:42:41.456Z,6.60
2023-03-13T04:45:28.015Z,6.93
2023-03-13T04:48:14.718Z,6.83
2023-03-13T04:50:52.375Z,7.20
2023-03-13T04:53:27.292Z,6.53
2023-03-13T04:56:32.473Z,6.50
2023-03-13T04:59:25.937Z,7.00
2023-03-13T05:02:05.617Z,6.63
2023-03-13T05:04:45.505Z,7.67
2023-03-13T05:07:21.261Z,6.40
2023-03-13T05:10:06.480Z,6.73
2023-03-13T05:12:43.138Z,6.60
2023-03-13T05:15:39.042Z,6.70
2023-03-13T05:18:34.586Z,5.80
2023-03-13T05:21:09.529Z,6.27
2023-03-13T05:23:36.197Z,6.60
2023-03-13T05:26:22.799Z,7.10
2023-03-13T05:29:03.601Z,6.37
2023-03-13T05:31:38.636Z,6.93
2023-03-13T05:34:17.378Z,6.90
2023-03-13T05:37:05.310Z,5.60
2023-03-13T05:39:51.884Z,5.90
2023-03-13T05:42:26.868Z,6.03
2023-03-13T05:45:09.221Z,6.23
2023-03-13T05:47:49.765Z,6.13
2023-03-13T05:50:35.102Z,5.77
2023-03-13T05:53:01.888Z,5.73
2023-03-13T05:55:37.318Z,5.70
2023-03-13T05:58:18.057Z,5.30
2023-03-13T06:01:09.838Z,5.20
2023-03-13T06:03:49.157Z,5.10
2023-03-13T06:06:17.489Z,4.70
2023-03-13T06:08:47.819Z,4.23
2023-03-13T06:11:14.754Z,4.73
2023-03-13T06:13:41.551Z,5.03
2023-03-13T06:16:19.391Z,3.90
2023-03-13T06:18:48.113Z,4.47
2023-03-13T06:21:15.022Z,4.13
2023-03-13T06:23:42.237Z,3.93
2023-03-13T06:26:08.829Z,3.93
2023-03-13T06:28:35.437Z,3.77
2023-03-13T06:31:06.855Z,4.03
2023-03-13T06:33:33.969Z,3.40
2023-03-13T06:36:01.829Z,3.20
2023-03-13T06:38:29.733Z,3.27
2023-03-13T06:40:56.591Z,3.63
2023-03-13T06:43:23.473Z,2.67
2023-03-13T06:45:50.680Z,2.60
2023-03-13T06:48:19.030Z,2.93
2023-03-13T06:50:45.831Z,2.53
2023-03-13T06:53:17.885Z,2.57
2023-03-13T06:55:44.838Z,2.67
2023-03-13T06:58:28.824Z,2.63
2023-03-13T07:00:58.413Z,2.80
2023-03-13T07:03:25.273Z,2.90
2023-03-13T07:05:59.175Z,2.90
2023-03-13T07:08:26.279Z,2.87
2023-03-13T07:10:54.694Z,2.70
2023-03-13T07:13:22.120Z,3.00
2023-03-13T07:15:49.097Z,2.67
2023-03-13T07:18:15.846Z,2.73
2023-03-13T07:20:42.619Z,2.67
2023-03-13T07:23:09.316Z,2.77
2023-03-13T07:25:36.034Z,2.90
2023-03-13T07:28:02.633Z,2.90
2023-03-13T07:30:29.391Z,2.60
2023-03-13T07:32:56.099Z,2.83
2023-03-13T07:35:22.705Z,2.67
2023-03-13T07:37:49.312Z,3.57
2023-03-13T07:40:16.128Z,2.40
2023-03-13T07:42:42.878Z,3.17
2023-03-13T07:45:09.865Z,2.70
2023-03-13T07:47:36.671Z,2.63
2023-03-13T07:50:03.598Z,2.80
2023-03-13T07:52:30.297Z,2.70
2023-03-13T07:54:56.879Z,2.60
2023-03-13T07:57:23.541Z,2.90
2023-03-13T07:59:50.530Z,2.97
2023-03-13T08:02:17.336Z,2.73
2023-03-13T08:04:44.047Z,2.53
2023-03-13T08:07:11.854Z,3.07
2023-03-13T08:09:38.542Z,2.90
2023-03-13T08:12:05.408Z,3.40
2023-03-13T08:14:32.002Z,3.27
2023-03-13T08:16:58.764Z,3.60
2023-03-13T08:19:25.536Z,3.50
2023-03-13T08:21:52.125Z,3.57
2023-03-13T08:24:18.704Z,3.70
2023-03-13T08:26:45.381Z,3.20
2023-03-13T08:29:14.848Z,3.33
2023-03-13T08:31:47.855Z,3.20
2023-03-13T08:34:16.249Z,3.57
2023-03-13T08:36:43.407Z,3.40
2023-03-13T08:39:13.464Z,3.67
2023-03-13T08:41:42.980Z,3.30
2023-03-13T08:44:15.168Z,4.43
2023-03-13T08:46:42.075Z,4.13
2023-03-13T08:49:09.363Z,4.70
2023-03-13T08:51:36.567Z,4.90
2023-03-13T08:54:04.288Z,5.30
2023-03-13T08:56:32.241Z,5.53
2023-03-13T08:59:01.147Z,4.50
2023-03-13T09:01:33.986Z,5.33
2023-03-13T09:04:03.966Z,5.50
2023-03-13T09:06:32.275Z,5.83
2023-03-13T09:08:59.032Z,5.57
2023-03-13T09:11:25.925Z,4.00
2023-03-13T09:13:52.857Z,5.60
2023-03-13T09:16:22.263Z,5.37
2023-03-13T09:18:50.145Z,5.60
2023-03-13T09:21:22.467Z,6.47
2023-03-13T09:23:49.736Z,6.03
2023-03-13T09:26:17.754Z,6.23
2023-03-13T09:28:44.759Z,5.73
2023-03-13T09:31:14.755Z,6.03
2023-03-13T09:33:42.503Z,5.30
2023-03-13T09:36:10.052Z,5.13
2023-03-13T09:38:37.552Z,5.90
2023-03-13T09:41:31.901Z,6.03
2023-03-13T09:44:02.171Z,6.07
2023-03-13T09:46:48.225Z,6.50
2023-03-13T09:49:37.756Z,7.00
2023-03-13T09:52:26.598Z,6.40
2023-03-13T09:55:03.943Z,7.50
2023-03-13T09:57:48.736Z,6.73
2023-03-13T10:00:29.189Z,7.30
2023-03-13T10:03:13.350Z,6.83
2023-03-13T10:05:46.248Z,7.20
2023-03-13T10:08:18.793Z,6.70
2023-03-13T10:11:11.066Z,7.47
2023-03-13T10:13:55.093Z,6.93
2023-03-13T10:16:30.854Z,6.90
2023-03-13T10:18:59.597Z,7.03
2023-03-13T10:21:36.993Z,6.40
2023-03-13T10:24:16.927Z,6.50
2023-03-13T10:26:43.605Z,5.50
2023-03-13T10:29:24.348Z,6.00
2023-03-13T10:32:00.081Z,4.83
2023-03-13T10:34:29.096Z,5.40
2023-03-13T10:36:59.180Z,4.90
2023-03-13T10:39:28.741Z,4.90
2023-03-13T10:42:20.832Z,4.87
2023-03-13T10:44:47.450Z,4.80
2023-03-13T10:47:14.936Z,5.20
2023-03-13T10:49:55.311Z,4.43
2023-03-13T10:52:49.139Z,4.30
2023-03-13T10:55:23.807Z,4.10
2023-03-13T10:58:02.331Z,3.90
2023-03-13T11:00:38.782Z,4.07
2023-03-13T11:03:14.098Z,3.30
2023-03-13T11:05:44.784Z,3.63
2023-03-13T11:08:17.411Z,3.90
2023-03-13T11:10:59.646Z,3.70
2023-03-13T11:13:36.968Z,3.80
2023-03-13T11:16:23.856Z,4.07
2023-03-13T11:19:13.173Z,3.60
2023-03-13T11:21:53.912Z,4.60
2023-03-13T11:24:27.453Z,3.70
2023-03-13T11:27:19.561Z,3.23
2023-03-13T11:30:07.983Z,3.07
2023-03-13T11:32:51.042Z,3.10
2023-03-13T11:35:37.059Z,3.00
2023-03-13T11:38:17.169Z,2.93
2023-03-13T11:40:55.715Z,3.37
2023-03-13T11:43:53.740Z,2.80
2023-03-13T11:46:33.876Z,2.93
2023-03-13T11:49:34.678Z,2.73
2023-03-13T11:52:16.112Z,2.20
2023-03-13T11:55:02.019Z,2.90
2023-03-13T11:57:30.811Z,3.13
2023-03-13T12:00:22.983Z,2.90
2023-03-13T12:03:05.798Z,2.40
2023-03-13T12:05:47.245Z,2.57
2023-03-13T12:08:28.274Z,2.77
2023-03-13T12:11:16.994Z,2.50
2023-03-13T12:13:55.223Z,2.73
2023-03-13T12:16:43.150Z,2.40
2023-03-13T12:19:14.948Z,2.27
2023-03-13T12:21:56.896Z,2.07
2023-03-13T12:24:41.419Z,2.40
2023-03-13T12:27:19.094Z,2.40
2023-03-13T12:29:53.701Z,2.23
2023-03-13T12:32:54.129Z,2.20
2023-03-13T12:35:33.203Z,2.33
2023-03-13T12:38:25.806Z,2.10
2023-03-13T12:41:06.645Z,2.10
2023-03-13T12:43:36.736Z,2.20
2023-03-13T12:46:11.645Z,2.43
2023-03-13T12:49:27.552Z,3.30
2023-03-13T12:52:13.073Z,2.20
2023-03-13T12:54:56.695Z,2.33
2023-03-13T12:57:56.134Z,2.33
2023-03-13T13:00:26.657Z,2.37
2023-03-13T13:03:33.561Z,2.30
2023-03-13T13:06:11.154Z,2.10
2023-03-13T13:08:53.000Z,2.20
2023-03-13T13:11:37.966Z,2.43
2023-03-13T13:14:27.511Z,2.17
2023-03-13T13:17:16.685Z,2.13
2023-03-13T13:19:47.543Z,2.00
2023-03-13T13:22:39.160Z,2.13
2023-03-13T13:25:11.711Z,1.87
2023-03-13T13:27:38.257Z,2.63
2023-03-13T13:30:20.120Z,2.13
2023-03-13T13:32:51.916Z,2.10
2023-03-13T13:35:22.225Z,2.37
2023-03-13T13:37:49.722Z,2.00
2023-03-13T13:40:16.649Z,1.90
2023-03-13T13:42:53.868Z,2.43
2023-03-13T13:45:47.970Z,2.00
2023-03-13T13:48:19.353Z,2.30
2023-03-13T13:51:10.993Z,2.20
2023-03-13T13:53:43.468Z,2.07
2023-03-13T13:56:31.146Z,2.10
2023-03-13T13:59:12.842Z,2.10
2023-03-13T14:01:41.575Z,1.80
2023-03-13T14:04:34.670Z,2.17
2023-03-13T14:07:04.600Z,2.07
2023-03-13T14:09:40.666Z,2.37
2023-03-13T14:12:26.799Z,1.87
2023-03-13T14:15:16.430Z,2.30
2023-03-13T14:18:00.185Z,2.20
2023-03-13T14:20:28.692Z,1.90
2023-03-13T14:23:00.724Z,2.20
2023-03-13T14:25:39.937Z,2.10
2023-03-13T14:28:14.960Z,2.00
2023-03-13T14:30:44.430Z,2.10
2023-03-13T14:33:11.327Z,2.07
2023-03-13T14:35:39.879Z,2.70
2023-03-13T14:38:06.889Z,2.37
2023-03-13T14:40:37.909Z,2.07
2023-03-13T14:43:05.062Z,2.33
2023-03-13T14:45:37.015Z,2.07
2023-03-13T14:48:27.586Z,2.10
2023-03-13T14:51:14.722Z,2.27
2023-03-13T14:54:00.199Z,2.47
2023-03-13T14:56:34.166Z,2.07
2023-03-13T14:59:08.392Z,2.20
2023-03-13T15:01:35.099Z,2.37
2023-03-13T15:04:01.770Z,2.20
2023-03-13T15:06:28.898Z,2.40
2023-03-13T15:09:16.389Z,1.70
2023-03-13T15:11:56.906Z,2.23
2023-03-13T15:14:52.906Z,2.13
2023-03-13T15:17:25.255Z,2.53
2023-03-13T15:19:54.615Z,2.20
2023-03-13T15:22:37.920Z,2.30
2023-03-13T15:25:14.754Z,2.60
2023-03-13T15:27:41.372Z,2.53
2023-03-13T15:30:15.862Z,2.60
2023-03-13T15:32:46.349Z,2.60
2023-03-13T15:35:25.301Z,2.07
2023-03-13T15:37:51.934Z,1.67
2023-03-13T15:40:19.595Z,2.23
2023-03-13T15:42:46.334Z,2.10
2023-03-13T15:45:13.036Z,2.27
2023-03-13T15:47:39.655Z,2.00
2023-03-13T15:50:12.511Z,2.30
2023-03-13T15:52:39.295Z,1.80
2023-03-13T15:55:09.917Z,1.93
2023-03-13T15:57:41.300Z,1.97
2023-03-13T16:00:20.090Z,2.37
2023-03-13T16:02:47.151Z,2.07
2023-03-13T16:05:15.851Z,2.07
2023-03-13T16:07:42.596Z,2.07
2023-03-13T16:10:17.703Z,2.10
2023-03-13T16:12:44.374Z,1.70
2023-03-13T16:15:11.467Z,1.73
2023-03-13T16:17:38.156Z,1.80
2023-03-13T16:20:16.972Z,1.87
2023-03-13T16:22:44.425Z,2.80
2023-03-13T16:25:11.364Z,2.03
2023-03-13T16:27:38.295Z,1.93
2023-03-13T16:30:13.752Z,1.83
2023-03-13T16:32:40.369Z,1.67
2023-03-13T16:35:07.222Z,1.77
2023-03-13T16:37:33.834Z,1.90
2023-03-13T16:40:01.012Z,1.97
2023-03-13T16:42:27.649Z,2.10
2023-03-13T16:44:54.218Z,2.23
2023-03-13T16:47:24.875Z,2.03
2023-03-13T16:49:51.505Z,3.13
2023-03-13T16:52:18.424Z,2.17
2023-03-13T16:54:46.177Z,1.77
2023-03-13T16:57:16.553Z,1.60
2023-03-13T16:59:43.447Z,2.23
2023-03-13T17:02:15.494Z,1.73
2023-03-13T17:04:44.621Z,2.03
2023-03-13T17:07:20.084Z,2.10
2023-03-13T17:09:46.949Z,2.10
2023-03-13T17:12:13.610Z,2.23
2023-03-13T17:14:40.288Z,2.10
2023-03-13T17:17:15.055Z,2.20
2023-03-13T17:19:41.662Z,2.13
2023-03-13T17:22:11.865Z,2.70
2023-03-13T17:24:38.698Z,2.40
2023-03-13T17:27:10.054Z,2.77
2023-03-13T17:29:36.658Z,2.30
2023-03-13T17:32:04.206Z,2.33
2023-03-13T17:34:31.248Z,2.30
2023-03-13T17:37:00.229Z,2.67
2023-03-13T17:39:26.829Z,2.13
2023-03-13T17:41:53.406Z,2.00
2023-03-13T17:44:19.974Z,1.93
2023-03-13T17:46:47.759Z,2.07
2023-03-13T17:49:17.146Z,2.10
2023-03-13T17:51:46.035Z,1.90
2023-03-13T17:54:15.245Z,2.10
2023-03-13T17:56:43.083Z,2.20
2023-03-13T17:59:18.057Z,2.10
2023-03-13T18:01:45.093Z,2.30
2023-03-13T18:04:12.919Z,2.13
2023-03-13T18:06:44.972Z,2.00
2023-03-13T18:09:17.506Z,2.20
2023-03-13T18:11:44.406Z,2.23
2023-03-13T18:14:11.602Z,1.83
2023-03-13T18:16:50.252Z,2.20
2023-03-13T18:19:20.558Z,2.73
2023-03-13T18:21:50.392Z,1.90
2023-03-13T18:24:17.732Z,2.17
2023-03-13T18:26:45.700Z,2.57
2023-03-13T18:29:15.513Z,3.57
2023-03-13T18:31:43.599Z,3.37
2023-03-13T18:34:11.686Z,2.23
2023-03-13T18:36:38.810Z,2.43
2023-03-13T18:39:06.206Z,2.80
2023-03-13T18:41:33.458Z,2.30
2023-03-13T18:44:03.348Z,2.50
2023-03-13T18:46:31.841Z,2.40
2023-03-13T18:49:00.278Z,3.17
2023-03-13T18:51:28.119Z,2.60
2023-03-13T18:53:55.511Z,2.30
2023-03-13T18:56:25.217Z,2.57
2023-03-13T18:58:54.241Z,2.43
2023-03-13T19:01:23.423Z,2.50
2023-03-13T19:03:50.457Z,2.73
2023-03-13T19:06:22.942Z,2.70
2023-03-13T19:08:52.021Z,2.37
2023-03-13T19:11:21.794Z,2.90
2023-03-13T19:13:48.581Z,3.10
2023-03-13T19:16:22.700Z,2.37
2023-03-13T19:18:49.864Z,2.70
2023-03-13T19:21:24.763Z,3.07
2023-03-13T19:23:52.600Z,2.97
2023-03-13T19:26:29.964Z,3.20
2023-03-13T19:28:56.891Z,3.60
2023-03-13T19:31:23.929Z,3.30
2023-03-13T19:33:53.336Z,3.00
2023-03-13T19:36:22.710Z,3.33
2023-03-13T19:38:50.224Z,2.93
2023-03-13T19:41:17.011Z,3.60
2023-03-13T19:43:43.935Z,3.27
2023-03-13T19:46:28.124Z,3.50
2023-03-13T19:48:57.353Z,3.63
2023-03-13T19:51:25.200Z,3.43
2023-03-13T19:53:52.521Z,3.00
2023-03-13T19:56:30.127Z,2.87
2023-03-13T19:59:00.644Z,2.77
2023-03-13T20:01:27.627Z,3.50
2023-03-13T20:03:54.426Z,2.97
2023-03-13T20:06:29.944Z,3.63
2023-03-13T20:08:58.532Z,2.90
2023-03-13T20:11:26.431Z,3.60
2023-03-13T20:13:53.454Z,3.00
2023-03-13T20:16:20.425Z,3.37
2023-03-13T20:18:49.540Z,3.23
2023-03-13T20:21:17.018Z,3.40
2023-03-13T20:23:44.740Z,2.83
2023-03-13T20:26:13.550Z,3.37
2023-03-13T20:28:42.577Z,3.23
2023-03-13T20:31:09.536Z,2.73
2023-03-13T20:33:37.560Z,2.87
2023-03-13T20:36:12.555Z,3.33
2023-03-13T20:38:40.376Z,3.30
2023-03-13T20:41:08.332Z,3.57
2023-03-13T20:43:35.719Z,3.30
2023-03-13T20:46:02.611Z,3.77
2023-03-13T20:48:29.293Z,4.40
2023-03-13T20:50:58.319Z,2.97
2023-03-13T20:53:25.804Z,2.80
2023-03-13T20:55:54.337Z,3.33
2023-03-13T20:58:21.213Z,3.10
2023-03-13T21:00:48.560Z,3.37
2023-03-13T21:03:17.247Z,3.30
2023-03-13T21:05:44.964Z,2.87
2023-03-13T21:08:11.910Z,3.53
2023-03-13T21:10:42.201Z,3.23
2023-03-13T21:13:10.396Z,4.10
2023-03-13T21:15:37.458Z,4.10
2023-03-13T21:18:04.681Z,3.10
2023-03-13T21:20:31.545Z,3.63
2023-03-13T21:22:58.215Z,3.83
2023-03-13T21:25:24.988Z,4.03
2023-03-13T21:27:51.663Z,3.70
2023-03-13T21:30:20.603Z,2.97
2023-03-13T21:32:47.831Z,2.67
2023-03-13T21:35:15.303Z,2.70
2023-03-13T21:37:42.749Z,2.90
2023-03-13T21:40:10.063Z,3.13
2023-03-13T21:42:37.487Z,3.37
2023-03-13T21:45:06.421Z,3.13
2023-03-13T21:47:36.684Z,2.57
2023-03-13T21:50:06.281Z,3.00
2023-03-13T21:52:38.098Z,2.87
2023-03-13T21:55:08.520Z,3.07
2023-03-13T21:57:35.248Z,2.60
2023-03-13T22:00:02.196Z,2.90
2023-03-13T22:02:37.457Z,2.37
2023-03-13T22:05:05.424Z,2.57
2023-03-13T22:07:32.154Z,3.70
2023-03-13T22:09:58.862Z,3.33
2023-03-13T22:12:25.855Z,3.43
2023-03-13T22:14:53.483Z,2.87
2023-03-13T22:17:21.988Z,5.70
2023-03-13T22:19:49.075Z,3.43
2023-03-13T22:22:17.100Z,2.90
2023-03-13T22:24:43.695Z,2.90
2023-03-13T22:27:10.411Z,3.07
2023-03-13T22:29:37.095Z,2.60
2023-03-13T22:32:04.323Z,2.40
2023-03-13T22:34:31.576Z,2.47
2023-03-13T22:36:58.834Z,2.20
2023-03-13T22:39:25.482Z,2.40
2023-03-13T22:41:52.098Z,6.37
2023-03-13T22:44:18.949Z,3.50
2023-03-13T22:46:45.538Z,3.43
2023-03-13T22:49:12.133Z,2.50
2023-03-13T22:51:38.718Z,2.20
2023-03-13T22:54:05.312Z,2.53
2023-03-13T22:56:31.929Z,5.23
2023-03-13T22:58:58.559Z,2.83
2023-03-13T23:01:26.381Z,4.17
2023-03-13T23:03:52.990Z,2.67
2023-03-13T23:06:22.494Z,2.77
2023-03-13T23:08:49.215Z,4.30
2023-03-13T23:11:16.385Z,3.70
2023-03-13T23:13:43.060Z,3.30
2023-03-13T23:16:11.706Z,2.93
2023-03-13T23:18:39.407Z,3.00
2023-03-13T23:21:08.795Z,2.73
2023-03-13T23:23:35.661Z,3.37
2023-03-13T23:26:07.641Z,3.23
2023-03-13T23:28:35.457Z,3.43
2023-03-13T23:31:29.310Z,3.87
2023-03-13T23:33:56.079Z,3.83
2023-03-13T23:36:22.657Z,2.90
2023-03-13T23:38:50.785Z,3.10
2023-03-13T23:41:18.153Z,3.37
2023-03-13T23:43:45.009Z,3.03
2023-03-13T23:46:21.242Z,2.93
2023-03-13T23:48:47.871Z,2.90
2023-03-13T23:51:14.753Z,3.00
2023-03-13T23:53:43.150Z,2.97
2023-03-13T23:56:11.139Z,3.03
2023-03-13T23:58:38.127Z,2.83
